ADDS METAR Data INFO
IDs: Format: Raw Decoded Include TAF

Data at: 2254 UTC 16 Jan 2018

KANJ 162155Z AUTO 30006KT 10SM CLR M09/M16 A3039 RMK AO2 SLP305 T10941161
KANJ 162055Z AUTO 30008KT 10SM CLR M08/M16 A3039 RMK AO2 SLP304 T10831161 56007
KANJ 161955Z AUTO 30004KT 10SM CLR M08/M17 A3039 RMK AO2 SLP306 T10831167
KANJ 161855Z AUTO VRB04KT 10SM CLR M09/M17 A3040 RMK AO2 SLP309 T10941167
KANJ 161755Z AUTO 27004KT 10SM CLR M10/M17 A3041 RMK AO2 SLP312 I6000 T11001167 11100 21167 58015
KANJ 161655Z AUTO 23003KT 10SM CLR M12/M17 A3044 RMK AO2 SLP324 T11171167
KANJ 161555Z AUTO 00000KT 10SM CLR M11/M17 A3047 RMK AO2 SLP331 T11111167
KANJ 161455Z AUTO 33003KT 10SM CLR M12/M16 A3046 RMK AO2 SLP327 I3000 T11221161 51011
KANJ 161355Z AUTO 33004KT 10SM CLR M15/M18 A3045 RMK AO2 SLP325 T11501178
KANJ 161255Z AUTO 31003KT 10SM CLR M16/M18 A3044 RMK AO2 SLP322 I1000 T11561178
KANJ 161155Z AUTO 00000KT 10SM CLR M15/M18 A3042 RMK AO2 SLP316 70008 T11501183 11100 21150 51007
KANJ 161055Z AUTO 33004KT 10SM CLR M14/M17 A3042 RMK AO2 SLP315 T11391172
KANJ 160955Z AUTO 06003KT 10SM CLR M12/M16 A3041 RMK AO2 SLP310 T11221161
KANJ 160855Z AUTO 03005KT 10SM CLR M12/M16 A3040 RMK AO2 SLP308 T11171156 50004
KANJ 160755Z AUTO 01004KT 10SM OVC036 M11/M14 A3040 RMK AO2 SLP309 T11061144
KANJ 160655Z AUTO 05003KT 10SM SCT055 M11/M14 A3039 RMK AO2 SLP304 T11061144
KANJ 160555Z AUTO 06004KT 10SM BKN065 OVC080 M10/M14 A3039 RMK AO2 SLP304 T11001144 11078 21100 58004
KANJ 160455Z AUTO 07004KT 10SM OVC070 M10/M14 A3040 RMK AO2 SLP309 T11001139 410611100
KANJ 160355Z AUTO 06005KT 10SM OVC060 M09/M13 A3041 RMK AO2 SLP312 T10941128
KANJ 160255Z AUTO 07005KT 8SM BKN032 BKN070 OVC090 M09/M13 A3040 RMK AO2 SLP308 T10891128 51003
KANJ 160155Z AUTO 06005KT 10SM BKN050 OVC100 M09/M13 A3040 RMK AO2 SLP308 T10891128
KANJ 160055Z AUTO 07005KT 9SM OVC038 M08/M12 A3041 RMK AO2 SLP311 T10831122
KANJ 152355Z AUTO 07008KT 10SM OVC042 M08/M12 A3039 RMK AO2 SLP304 60000 T10781122 11061 21078 51010
KANJ 152255Z AUTO 08007G16KT 7SM OVC050 M08/M12 A3039 RMK AO2 SNE53 SLP303 P0000 T10781122
KANJ 152227Z AUTO 07010G18KT 3SM -SN FEW019 OVC046 M07/M11 A3038 RMK AO2 P0000 T10721111
KANJ 152217Z AUTO 07007KT 2 1/2SM -SN BKN048 OVC060 M07/M11 A3038 RMK AO2 P0000 T10721106
KANJ 152155Z AUTO 08007KT 4SM -SN BKN044 OVC055 M07/M12 A3038 RMK AO2 SLP300 P0000 T10721117
KANJ 152125Z AUTO 08008KT 2 1/2SM -SN BKN031 OVC047 M07/M11 A3037 RMK AO2 P0000 T10721111
KANJ 152115Z AUTO 08011G20KT 2 1/2SM -SN BKN029 OVC047 M07/M11 A3037 RMK AO2 P0000 T10721111
KANJ 152101Z AUTO 09011G20KT 1 3/4SM -SN FEW019 BKN027 OVC035 M07/M11 A3036 RMK AO2 P0000 T10721111
KANJ 152055Z AUTO 09011G20KT 3SM -SN FEW019 BKN031 OVC038 M07/M11 A3036 RMK AO2 SNB04 SLP294 P0000 60000 T10721111 53003
KANJ 151955Z AUTO 09010G19KT 5SM HZ FEW023 BKN034 OVC055 M07/M11 A3036 RMK AO2 SNE29 SLP291 P0000 T10671111
KANJ 151937Z AUTO 08011G20KT 6SM HZ FEW025 OVC032 M07/M11 A3035 RMK AO2 SNE29 P0000 T10671111
KANJ 151924Z AUTO 09010G19KT 3SM -SN BKN028 OVC038 M06/M11 A3034 RMK AO2 P0000 T10611111
KANJ 151916Z AUTO 09013G19KT 2 1/2SM -SN BKN028 OVC036 M06/M11 A3035 RMK AO2 P0000 T10611111
KANJ 151904Z AUTO 09009G19KT 1 3/4SM -SN BKN028 OVC036 M07/M11 A3035 RMK AO2 P0000 T10671106
KANJ 151855Z AUTO 10010G20KT 2 1/2SM -SN BKN030 OVC039 M07/M11 A3035 RMK AO2 SNE1756B17 SLP289 P0000 T10671111
KANJ 151841Z AUTO 09012G21KT 2SM -SN FEW029 BKN036 OVC050 M07/M11 A3035 RMK AO2 SNE1756B17 P0000 T10671106
KANJ 151819Z AUTO 09011G20KT 6SM -SN FEW024 BKN036 OVC049 M07/M11 A3036 RMK AO2 SNE1756B17 P0000 T10671106
KANJ 151755Z AUTO 10010G18KT 5SM -SN OVC021 M07/M11 A3035 RMK AO2 SLP291 P0001 60008 T10671106 11067 21078 57010
KANJ 151752Z AUTO 09011G20KT 4SM -SN OVC021 M07/M11 A3035 RMK AO2 P0001
KANJ 151743Z AUTO 10008G19KT 2 1/2SM -SN OVC019 M07/M11 A3036 RMK AO2 P0001 T10671106
KANJ 151718Z AUTO 10009G16KT 1SM -SN BKN016 OVC022 M07/M10 A3037 RMK AO2 P0000 T10721100
KANJ 151655Z AUTO 10009G17KT 1/2SM SN FZFG OVC014 M07/M09 A3039 RMK AO2 SLP302 P0002 T10721094
KANJ 151606Z AUTO 11007KT 1/2SM SN FZFG VV011 M07/M09 A3038 RMK AO2 P0001 T10671089
KANJ 151555Z AUTO 11007KT 1/2SM SN FZFG VV009 M07/M09 A3039 RMK AO2 SLP302 P0002 T10721094
KANJ 151539Z AUTO 10008KT 1/4SM SN FZFG VV008 M07/M09 A3039 RMK AO2 P0002 T10721094
KANJ 151526Z AUTO 09005KT 1/4SM +SN FZFG VV012 M07/M09 A3039 RMK AO2 P0001 T10721094
KANJ 151455Z AUTO 09006KT 3/4SM -SN BR VV017 M08/M10 A3039 RMK AO2 SLP303 P0002 60003 T10781100 51007
KANJ 151453Z AUTO 09005KT 1/2SM -SN FZFG VV016 M08/M10 A3039 RMK AO2 P0002
KANJ 151355Z AUTO 08004KT 1/2SM SN VV013 M08/M11 A3039 RMK AO2 SNB21 SLP304 P0001 T10781106
KANJ 151353Z AUTO 09004KT 3/4SM -SN VV014 M08/M11 A3039 RMK AO2 SNB21 P0001
KANJ 151342Z AUTO 11006KT 1 1/4SM -SN BKN019 OVC033 M08/M12 A3039 RMK AO2 SNB21 P0000 T10781117
KANJ 151333Z AUTO 11006KT 2 1/2SM -SN BKN021 OVC033 M08/M12 A3039 RMK AO2 SNB21 P0000 T10781122
KANJ 151255Z AUTO 13008KT 10SM OVC034 M07/M13 A3037 RMK AO2 SLP296 T10721133
KANJ 151155Z AUTO 12007KT 10SM OVC035 M08/M13 A3038 RMK AO2 SLP300 T10781128 11078 21083 55003
KANJ 151055Z AUTO 14007KT 10SM SCT033 M08/M13 A3037 RMK AO2 SLP296 T10781133